createdAt,value
2018-11-10T00:01:07.470Z,11.54
2018-11-10T00:03:37.438Z,11.58
2018-11-10T00:06:07.403Z,11.52
2018-11-10T00:08:37.400Z,11.52
2018-11-10T00:11:07.436Z,11.48
2018-11-10T00:13:37.438Z,11.55
2018-11-10T00:16:07.646Z,11.55
2018-11-10T00:18:37.479Z,11.57
2018-11-10T00:21:07.562Z,11.51
2018-11-10T00:23:37.395Z,11.52
2018-11-10T00:26:07.437Z,11.50
2018-11-10T00:28:37.395Z,11.55
2018-11-10T00:31:07.412Z,11.52
2018-11-10T00:33:37.462Z,11.46
2018-11-10T00:36:07.493Z,11.52
2018-11-10T00:38:37.656Z,11.54
2018-11-10T00:41:07.527Z,11.53
2018-11-10T00:43:37.540Z,11.53
2018-11-10T00:46:07.943Z,11.48
2018-11-10T00:48:37.578Z,11.39
2018-11-10T00:51:07.663Z,11.44
2018-11-10T00:53:37.502Z,11.50
2018-11-10T00:56:07.552Z,11.47
2018-11-10T00:58:37.552Z,11.43
2018-11-10T01:01:07.519Z,11.43
2018-11-10T01:03:37.531Z,11.48
2018-11-10T01:06:07.632Z,11.55
2018-11-10T01:08:37.520Z,11.51
2018-11-10T01:11:07.528Z,11.51
2018-11-10T01:13:37.502Z,11.32
2018-11-10T01:16:07.582Z,11.33
2018-11-10T01:18:37.591Z,11.35
2018-11-10T01:21:07.594Z,11.27
2018-11-10T01:23:37.618Z,11.40
2018-11-10T01:26:07.626Z,11.32
2018-11-10T01:28:37.559Z,11.28
2018-11-10T01:31:07.555Z,11.22
2018-11-10T01:33:37.642Z,11.28
2018-11-10T01:36:07.806Z,11.19
2018-11-10T01:38:37.631Z,11.07
2018-11-10T01:41:07.722Z,11.15
2018-11-10T01:43:37.655Z,11.10
2018-11-10T01:46:07.742Z,11.15
2018-11-10T01:48:37.601Z,11.12
2018-11-10T01:51:07.585Z,11.17
2018-11-10T01:53:37.579Z,11.16
2018-11-10T01:56:07.629Z,11.18
2018-11-10T01:58:37.650Z,11.17
2018-11-10T02:01:07.578Z,11.15
2018-11-10T02:03:37.717Z,11.10
2018-11-10T02:06:07.714Z,11.10
2018-11-10T02:08:37.629Z,11.08
2018-11-10T02:11:07.639Z,11.13
2018-11-10T02:13:37.665Z,11.10
2018-11-10T02:16:07.671Z,11.03
2018-11-10T02:18:37.737Z,10.97
2018-11-10T02:21:07.747Z,10.90
2018-11-10T02:23:37.726Z,10.93
2018-11-10T02:26:07.626Z,10.93
2018-11-10T02:28:37.721Z,10.91
2018-11-10T02:31:07.718Z,11.11
2018-11-10T02:33:37.782Z,11.03
2018-11-10T02:36:07.776Z,11.01
2018-11-10T02:38:37.899Z,11.00
2018-11-10T02:41:07.753Z,11.00
2018-11-10T02:43:37.759Z,11.07
2018-11-10T02:46:07.673Z,10.89
2018-11-10T02:48:37.695Z,10.85
2018-11-10T02:51:07.770Z,10.88
2018-11-10T02:53:38.815Z,10.98
2018-11-10T02:56:07.967Z,10.97
2018-11-10T02:58:37.763Z,11.03
2018-11-10T03:01:07.741Z,11.05
2018-11-10T03:03:37.802Z,11.01
2018-11-10T03:06:07.707Z,11.06
2018-11-10T03:08:37.727Z,11.09
2018-11-10T03:11:07.815Z,11.12
2018-11-10T03:13:37.765Z,11.16
2018-11-10T03:16:07.784Z,11.20
2018-11-10T03:18:37.806Z,11.22
2018-11-10T03:21:07.970Z,11.13
2018-11-10T03:23:37.739Z,11.30
2018-11-10T03:26:07.802Z,11.32
2018-11-10T03:28:37.766Z,11.30
2018-11-10T03:31:08.023Z,11.28
2018-11-10T03:33:37.803Z,11.37
2018-11-10T03:36:07.862Z,11.27
2018-11-10T03:38:38.788Z,11.28
2018-11-10T03:41:07.954Z,11.36
2018-11-10T03:43:38.023Z,11.38
2018-11-10T03:46:08.015Z,11.27
2018-11-10T03:48:37.818Z,11.33
2018-11-10T03:51:07.790Z,11.20
2018-11-10T03:53:37.851Z,11.28
2018-11-10T03:56:08.115Z,11.41
2018-11-10T03:58:37.865Z,11.38
2018-11-10T04:01:07.850Z,11.25
2018-11-10T04:08:42.034Z,11.23
2018-11-10T04:11:11.174Z,11.29
2018-11-10T04:13:40.360Z,11.40
2018-11-10T04:16:09.492Z,11.52
2018-11-10T04:18:38.643Z,11.56
2018-11-10T04:21:07.867Z,11.40
2018-11-10T04:28:42.231Z,11.19
2018-11-10T04:31:11.360Z,11.33
2018-11-10T04:33:40.551Z,11.61
2018-11-10T04:36:09.774Z,11.56
2018-11-10T04:38:38.969Z,11.53
2018-11-10T04:41:08.409Z,11.48
2018-11-10T04:43:37.883Z,11.42
2018-11-10T04:46:07.891Z,11.58
2018-11-10T04:48:37.922Z,11.59
2018-11-10T04:51:07.918Z,11.64
2018-11-10T04:53:38.015Z,11.69
2018-11-10T04:56:07.883Z,11.64
2018-11-10T05:03:42.797Z,11.35
2018-11-10T05:06:11.930Z,11.54
2018-11-10T05:08:41.071Z,11.61
2018-11-10T05:11:10.235Z,11.60
2018-11-10T05:13:39.373Z,11.62
2018-11-10T05:16:08.582Z,11.52
2018-11-10T05:18:37.923Z,11.69
2018-11-10T05:21:29.096Z,11.75
2018-11-10T05:23:58.318Z,11.67
2018-11-10T05:26:27.494Z,11.62
2018-11-10T05:28:57.723Z,11.69
2018-11-10T05:31:26.867Z,11.62
2018-11-10T05:33:56.019Z,11.68
2018-11-10T05:36:25.163Z,11.70
2018-11-10T05:38:54.338Z,11.79
2018-11-10T05:41:23.527Z,11.87
2018-11-10T05:43:52.671Z,11.89
2018-11-10T05:46:21.882Z,11.84
2018-11-10T05:48:51.030Z,11.77
2018-11-10T05:51:20.367Z,11.85
2018-11-10T05:53:49.593Z,11.84
2018-11-10T05:56:18.742Z,11.88
2018-11-10T05:58:47.891Z,11.88
2018-11-10T06:01:17.055Z,11.89
2018-11-10T06:03:46.211Z,11.84
2018-11-10T06:06:15.347Z,11.91
2018-11-10T06:08:44.494Z,11.83
2018-11-10T06:11:13.702Z,11.78
2018-11-10T06:13:42.850Z,11.80
2018-11-10T06:16:12.097Z,11.78
2018-11-10T06:18:41.196Z,11.77
2018-11-10T06:21:10.322Z,11.83
2018-11-10T06:23:39.625Z,11.84
2018-11-10T06:26:08.838Z,11.88
2018-11-10T06:28:38.003Z,11.91
2018-11-10T06:31:08.109Z,11.88
2018-11-10T06:33:38.078Z,11.78
2018-11-10T06:36:12.658Z,11.83
2018-11-10T06:38:47.045Z,11.86
2018-11-10T06:41:21.544Z,11.96
2018-11-10T06:43:50.843Z,12.02
2018-11-10T06:46:20.040Z,12.00
2018-11-10T06:48:49.247Z,12.00
2018-11-10T06:51:18.396Z,12.04
2018-11-10T06:53:47.534Z,11.97
2018-11-10T06:56:16.692Z,11.90
2018-11-10T06:58:45.834Z,12.02
2018-11-10T07:01:15.155Z,12.10
2018-11-10T07:03:44.362Z,12.02
2018-11-10T07:06:13.504Z,11.98
2018-11-10T07:08:42.651Z,12.03
2018-11-10T07:11:11.796Z,12.02
2018-11-10T07:13:40.944Z,12.01
2018-11-10T07:16:10.307Z,12.11
2018-11-10T07:18:39.453Z,12.14
2018-11-10T07:21:08.598Z,12.26
2018-11-10T07:23:38.250Z,12.24
2018-11-10T07:26:08.174Z,12.19
2018-11-10T07:28:38.186Z,12.25
2018-11-10T07:31:08.195Z,12.15
2018-11-10T07:33:38.197Z,12.10
2018-11-10T07:36:08.239Z,12.20
2018-11-10T07:38:38.345Z,12.21
2018-11-10T07:41:08.532Z,12.24
2018-11-10T07:43:38.533Z,12.29
2018-11-10T07:46:08.301Z,12.34
2018-11-10T07:48:38.231Z,12.18
2018-11-10T07:51:08.876Z,12.19
2018-11-10T07:53:39.282Z,12.24
2018-11-10T07:56:08.839Z,12.32
2018-11-10T07:58:38.389Z,12.24
2018-11-10T08:01:08.896Z,12.25
2018-11-10T08:03:38.443Z,12.34
2018-11-10T08:06:08.334Z,12.32
2018-11-10T08:08:38.258Z,12.33
2018-11-10T08:11:08.334Z,12.38
2018-11-10T08:13:38.286Z,12.39
2018-11-10T08:16:08.267Z,12.44
2018-11-10T08:18:38.399Z,12.43
2018-11-10T08:21:08.730Z,12.47
2018-11-10T08:23:38.275Z,12.51
2018-11-10T08:26:08.738Z,12.55
2018-11-10T08:28:38.284Z,12.49
2018-11-10T08:31:08.339Z,12.50
2018-11-10T08:33:38.623Z,12.55
2018-11-10T08:36:08.363Z,12.60
2018-11-10T08:38:38.379Z,12.56
2018-11-10T08:41:08.390Z,12.55
2018-11-10T08:43:38.394Z,12.54
2018-11-10T08:46:08.506Z,12.61
2018-11-10T08:48:38.322Z,12.65
2018-11-10T08:51:08.359Z,12.70
2018-11-10T08:53:38.359Z,12.70
2018-11-10T08:56:08.426Z,12.64
2018-11-10T08:58:38.411Z,12.75
2018-11-10T09:01:08.426Z,12.74
2018-11-10T09:03:39.031Z,12.81
2018-11-10T09:06:08.351Z,12.69
2018-11-10T09:08:38.362Z,12.75
2018-11-10T09:11:08.399Z,12.87
2018-11-10T09:13:38.536Z,12.92
2018-11-10T09:16:08.433Z,13.01
2018-11-10T09:18:38.430Z,12.98
2018-11-10T09:21:08.525Z,12.98
2018-11-10T09:23:38.392Z,12.89
2018-11-10T09:26:08.507Z,12.94
2018-11-10T09:28:38.518Z,13.01
2018-11-10T09:31:08.432Z,13.02
2018-11-10T09:33:38.434Z,13.10
2018-11-10T09:36:09.280Z,13.21
2018-11-10T09:38:38.447Z,13.28
2018-11-10T09:41:08.491Z,13.26
2018-11-10T09:43:38.455Z,13.33
2018-11-10T09:46:08.536Z,13.43
2018-11-10T09:48:38.742Z,13.51
2018-11-10T09:51:08.820Z,13.51
2018-11-10T09:53:38.559Z,13.68
2018-11-10T09:56:08.510Z,13.75
2018-11-10T09:58:38.494Z,13.80
2018-11-10T10:01:08.696Z,13.87
2018-11-10T10:03:38.542Z,13.89
2018-11-10T10:06:08.497Z,13.92
2018-11-10T10:08:38.518Z,13.96
2018-11-10T10:11:09.604Z,14.00
2018-11-10T10:13:38.875Z,14.00
2018-11-10T10:16:08.673Z,13.96
2018-11-10T10:18:38.619Z,14.05
2018-11-10T10:21:08.662Z,14.05
2018-11-10T10:23:38.571Z,14.04
2018-11-10T10:26:08.674Z,14.05
2018-11-10T10:28:38.753Z,14.13
2018-11-10T10:31:08.718Z,14.05
2018-11-10T10:33:38.663Z,14.04
2018-11-10T10:36:08.689Z,14.16
2018-11-10T10:38:38.743Z,14.16
2018-11-10T10:41:08.608Z,14.17
2018-11-10T10:43:38.591Z,14.21
2018-11-10T10:46:08.642Z,14.17
2018-11-10T10:48:39.069Z,14.27
2018-11-10T10:51:08.680Z,14.30
2018-11-10T10:53:38.741Z,14.27
2018-11-10T10:56:09.711Z,14.32
2018-11-10T10:58:38.755Z,14.41
2018-11-10T11:01:13.995Z,14.45
2018-11-10T11:03:48.387Z,14.33
2018-11-10T11:06:17.555Z,14.35
2018-11-10T11:08:46.698Z,14.44
2018-11-10T11:11:15.858Z,14.50
2018-11-10T11:13:45.015Z,14.44
2018-11-10T11:16:14.433Z,14.45
2018-11-10T11:18:43.655Z,14.50
2018-11-10T11:21:12.859Z,14.60
2018-11-10T11:23:43.060Z,14.58
2018-11-10T11:26:43.546Z,14.54
2018-11-10T11:29:13.087Z,14.54
2018-11-10T11:31:42.281Z,14.63
2018-11-10T11:34:11.587Z,14.68
2018-11-10T11:36:40.766Z,14.70
2018-11-10T11:39:11.398Z,14.72
2018-11-10T11:41:40.875Z,14.73
2018-11-10T11:44:10.323Z,14.80
2018-11-10T11:46:39.536Z,14.83
2018-11-10T11:54:07.527Z,14.83
2018-11-10T11:56:36.925Z,14.94
2018-11-10T11:59:07.231Z,14.88
2018-11-10T12:01:36.582Z,14.95
2018-11-10T12:04:05.878Z,15.05
2018-11-10T12:06:35.354Z,15.06
2018-11-10T12:09:06.159Z,15.10
2018-11-10T12:11:35.299Z,15.14
2018-11-10T12:14:04.524Z,15.17
2018-11-10T12:16:33.944Z,15.21
2018-11-10T12:19:03.279Z,15.19
2018-11-10T12:21:33.310Z,15.26
2018-11-10T12:24:03.523Z,15.30
2018-11-10T12:26:32.788Z,15.32
2018-11-10T12:29:02.110Z,15.36
2018-11-10T12:31:31.408Z,15.46
2018-11-10T12:34:00.515Z,15.55
2018-11-10T12:36:29.697Z,15.56
2018-11-10T12:38:59.592Z,15.64
2018-11-10T12:41:28.646Z,15.64
2018-11-10T12:43:58.723Z,15.67
2018-11-10T12:46:28.035Z,15.70
2018-11-10T12:48:57.158Z,15.74
2018-11-10T12:51:26.345Z,15.83
2018-11-10T12:53:55.514Z,15.91
2018-11-10T12:56:24.787Z,15.95
2018-11-10T12:58:54.035Z,15.99
2018-11-10T13:01:23.243Z,15.98
2018-11-10T13:03:52.414Z,15.97
2018-11-10T13:06:21.631Z,16.04
2018-11-10T13:08:50.798Z,16.02
2018-11-10T13:11:20.116Z,16.04
2018-11-10T13:13:49.162Z,16.06
2018-11-10T13:16:20.263Z,16.07
2018-11-10T13:18:49.382Z,16.13
2018-11-10T13:21:18.524Z,16.16
2018-11-10T13:23:47.681Z,16.16
2018-11-10T13:26:16.823Z,16.17
2018-11-10T13:28:46.005Z,16.14
2018-11-10T13:31:15.200Z,16.12
2018-11-10T13:33:44.287Z,16.14
2018-11-10T13:36:13.419Z,16.10
2018-11-10T13:38:42.594Z,16.12
2018-11-10T13:41:11.727Z,16.14
2018-11-10T13:43:40.949Z,16.15
2018-11-10T13:46:10.030Z,16.19
2018-11-10T13:48:39.953Z,16.18
2018-11-10T13:51:09.883Z,16.21
2018-11-10T13:53:40.006Z,16.23
2018-11-10T13:56:09.722Z,16.23
2018-11-10T13:58:39.775Z,16.20
2018-11-10T14:01:10.712Z,16.23
2018-11-10T14:03:40.066Z,16.21
2018-11-10T14:06:09.774Z,16.21
2018-11-10T14:08:39.728Z,16.20
2018-11-10T14:11:09.783Z,16.22
2018-11-10T14:13:39.773Z,16.18
2018-11-10T14:16:09.754Z,16.20
2018-11-10T14:18:39.898Z,16.21
2018-11-10T14:21:09.850Z,16.20
2018-11-10T14:23:39.830Z,16.18
2018-11-10T14:26:11.503Z,16.16
2018-11-10T14:28:40.669Z,16.14
2018-11-10T14:31:09.922Z,16.11
2018-11-10T14:33:39.929Z,16.06
2018-11-10T14:36:09.854Z,15.97
2018-11-10T14:38:39.812Z,15.99
2018-11-10T14:41:09.785Z,16.01
2018-11-10T14:43:39.926Z,15.98
2018-11-10T14:46:09.861Z,15.97
2018-11-10T14:48:39.915Z,15.99
2018-11-10T14:51:09.975Z,15.98
2018-11-10T14:53:39.894Z,15.97
2018-11-10T14:56:09.833Z,15.91
2018-11-10T14:58:40.055Z,15.94
2018-11-10T15:01:09.877Z,15.95
2018-11-10T15:03:39.926Z,15.90
2018-11-10T15:06:09.859Z,15.83
2018-11-10T15:08:40.139Z,15.78
2018-11-10T15:11:10.401Z,15.82
2018-11-10T15:13:40.051Z,15.80
2018-11-10T15:16:09.933Z,15.85
2018-11-10T15:18:39.950Z,15.88
2018-11-10T15:21:09.991Z,15.87
2018-11-10T15:23:46.213Z,15.81
2018-11-10T15:26:15.402Z,15.77
2018-11-10T15:28:44.748Z,15.74
2018-11-10T15:31:13.891Z,15.72
2018-11-10T15:33:43.081Z,15.73
2018-11-10T15:36:12.322Z,15.71
2018-11-10T15:38:41.496Z,15.69
2018-11-10T15:41:10.675Z,15.67
2018-11-10T15:43:40.004Z,15.66
2018-11-10T15:46:10.120Z,15.67
2018-11-10T15:48:39.999Z,15.67
2018-11-10T15:51:10.070Z,15.66
2018-11-10T15:53:40.032Z,15.63
2018-11-10T15:56:10.066Z,15.58
2018-11-10T15:58:40.187Z,15.54
2018-11-10T16:01:10.134Z,15.46
2018-11-10T16:03:40.290Z,15.44
2018-11-10T16:06:10.023Z,15.46
2018-11-10T16:08:40.051Z,15.41
2018-11-10T16:11:10.027Z,15.39
2018-11-10T16:13:40.014Z,15.37
2018-11-10T16:16:10.143Z,15.27
2018-11-10T16:18:40.182Z,15.26
2018-11-10T16:21:10.082Z,15.23
2018-11-10T16:23:40.122Z,15.21
2018-11-10T16:26:09.274Z,15.22
2018-11-10T16:28:38.526Z,15.23
2018-11-10T16:31:07.687Z,15.16
2018-11-10T16:33:36.869Z,15.12
2018-11-10T16:36:08.086Z,15.13
2018-11-10T16:38:48.272Z,15.13
2018-11-10T16:41:17.550Z,15.14
2018-11-10T16:43:46.863Z,15.13
2018-11-10T16:46:16.789Z,15.05
2018-11-10T16:48:46.775Z,15.07
2018-11-10T16:51:16.803Z,15.04
2018-11-10T16:53:46.805Z,15.01
2018-11-10T16:56:16.887Z,14.97
2018-11-10T16:58:46.901Z,15.00
2018-11-10T17:01:16.767Z,14.97
2018-11-10T17:03:46.755Z,15.01
2018-11-10T17:06:16.858Z,14.95
2018-11-10T17:08:46.856Z,14.94
2018-11-10T17:11:16.878Z,14.95
2018-11-10T17:13:46.819Z,14.93
2018-11-10T17:16:16.883Z,14.85
2018-11-10T17:18:46.969Z,14.80
2018-11-10T17:21:17.706Z,14.78
2018-11-10T17:23:46.864Z,14.82
2018-11-10T17:26:16.838Z,14.85
2018-11-10T17:28:46.827Z,14.78
2018-11-10T17:31:16.936Z,14.77
2018-11-10T17:33:47.038Z,14.77
2018-11-10T17:36:16.894Z,14.78
2018-11-10T17:38:46.955Z,14.88
2018-11-10T17:41:17.311Z,14.94
2018-11-10T17:43:47.088Z,14.91
2018-11-10T17:46:17.118Z,14.94
2018-11-10T17:48:46.923Z,14.98
2018-11-10T17:51:16.923Z,14.99
2018-11-10T17:53:46.976Z,15.01
2018-11-10T17:56:16.978Z,15.02
2018-11-10T17:58:47.024Z,15.02
2018-11-10T18:01:17.021Z,15.05
2018-11-10T18:03:46.979Z,15.09
2018-11-10T18:06:16.995Z,15.11
2018-11-10T18:08:46.934Z,15.15
2018-11-10T18:11:16.922Z,15.17
2018-11-10T18:13:46.913Z,15.17
2018-11-10T18:16:17.011Z,15.19
2018-11-10T18:18:47.057Z,15.13
2018-11-10T18:21:16.978Z,15.17
2018-11-10T18:23:46.947Z,15.09
2018-11-10T18:26:17.015Z,15.13
2018-11-10T18:28:47.027Z,15.19
2018-11-10T18:31:17.023Z,15.19
2018-11-10T18:33:50.571Z,15.09
2018-11-10T18:36:23.982Z,15.09
2018-11-10T18:38:58.356Z,15.08
2018-11-10T18:41:33.787Z,15.16
2018-11-10T18:44:02.946Z,15.11
2018-11-10T18:46:32.129Z,15.04
2018-11-10T18:49:01.395Z,15.04
2018-11-10T18:51:30.543Z,15.00
2018-11-10T18:53:59.790Z,14.89
2018-11-10T18:56:28.940Z,14.86
2018-11-10T18:58:58.155Z,14.82
2018-11-10T19:01:27.318Z,14.90
2018-11-10T19:03:56.483Z,15.02
2018-11-10T19:06:25.680Z,15.02
2018-11-10T19:08:54.963Z,15.05
2018-11-10T19:11:24.107Z,15.01
2018-11-10T19:13:53.266Z,14.99
2018-11-10T19:16:22.413Z,14.93
2018-11-10T19:18:51.610Z,14.83
2018-11-10T19:21:20.848Z,14.85
2018-11-10T19:23:50.024Z,14.82
2018-11-10T19:26:19.222Z,14.85
2018-11-10T19:28:48.390Z,14.78
2018-11-10T19:31:17.635Z,14.73
2018-11-10T19:33:47.186Z,14.82
2018-11-10T19:36:17.902Z,14.77
2018-11-10T19:38:47.166Z,14.74
2018-11-10T19:41:17.210Z,14.78
2018-11-10T19:43:47.354Z,14.76
2018-11-10T19:46:17.122Z,14.74
2018-11-10T19:48:47.190Z,14.71
2018-11-10T19:51:17.580Z,14.66
2018-11-10T19:53:47.244Z,14.59
2018-11-10T19:56:17.215Z,14.62
2018-11-10T19:58:47.207Z,14.57
2018-11-10T20:01:17.198Z,14.64
2018-11-10T20:03:47.244Z,14.64
2018-11-10T20:06:17.291Z,14.68
2018-11-10T20:08:47.231Z,14.72
2018-11-10T20:11:17.258Z,14.70
2018-11-10T20:13:47.331Z,14.69
2018-11-10T20:16:17.302Z,14.67
2018-11-10T20:18:47.191Z,14.72
2018-11-10T20:21:17.234Z,14.66
2018-11-10T20:23:47.263Z,14.65
2018-11-10T20:26:17.257Z,14.71
2018-11-10T20:28:47.191Z,14.61
2018-11-10T20:31:17.218Z,14.68
2018-11-10T20:33:47.289Z,14.67
2018-11-10T20:36:17.332Z,14.61
2018-11-10T20:38:47.320Z,14.64
2018-11-10T20:41:17.321Z,14.60
2018-11-10T20:43:47.995Z,14.49
2018-11-10T20:46:18.542Z,14.62
2018-11-10T20:48:47.767Z,14.59
2018-11-10T20:51:17.537Z,14.62
2018-11-10T20:53:47.419Z,14.56
2018-11-10T20:56:17.498Z,14.66
2018-11-10T20:58:47.399Z,14.59
2018-11-10T21:01:17.346Z,14.58
2018-11-10T21:03:47.322Z,14.61
2018-11-10T21:06:17.421Z,14.66
2018-11-10T21:08:47.419Z,14.66
2018-11-10T21:11:17.463Z,14.64
2018-11-10T21:13:47.448Z,14.66
2018-11-10T21:16:17.521Z,14.69
2018-11-10T21:18:47.340Z,14.79
2018-11-10T21:21:17.517Z,14.77
2018-11-10T21:23:47.398Z,14.77
2018-11-10T21:26:17.527Z,14.82
2018-11-10T21:28:47.490Z,14.76
2018-11-10T21:31:17.543Z,14.74
2018-11-10T21:33:47.488Z,14.78
2018-11-10T21:36:17.515Z,14.77
2018-11-10T21:38:47.449Z,14.88
2018-11-10T21:41:17.586Z,14.86
2018-11-10T21:43:47.601Z,14.87
2018-11-10T21:46:17.595Z,14.87
2018-11-10T21:48:47.587Z,14.92
2018-11-10T21:51:17.598Z,14.88
2018-11-10T21:53:47.621Z,14.88
2018-11-10T21:56:17.747Z,14.83
2018-11-10T21:58:47.394Z,14.89
2018-11-10T22:01:17.595Z,14.85
2018-11-10T22:03:47.464Z,14.85
2018-11-10T22:06:17.458Z,14.89
2018-11-10T22:08:47.706Z,14.76
2018-11-10T22:11:17.667Z,14.83
2018-11-10T22:13:47.524Z,14.80
2018-11-10T22:16:18.509Z,14.81
2018-11-10T22:18:48.419Z,14.76
2018-11-10T22:21:18.633Z,14.78
2018-11-10T22:23:47.803Z,14.71
2018-11-10T22:26:17.533Z,14.78
2018-11-10T22:28:47.514Z,14.78
2018-11-10T22:31:17.558Z,14.74
2018-11-10T22:33:47.487Z,14.78
2018-11-10T22:36:17.587Z,14.78
2018-11-10T22:38:47.503Z,14.85
2018-11-10T22:41:17.483Z,14.86
2018-11-10T22:43:47.475Z,14.88
2018-11-10T22:46:17.482Z,14.89
2018-11-10T22:48:47.487Z,14.88
2018-11-10T22:51:17.874Z,14.86
2018-11-10T22:53:47.460Z,14.86
2018-11-10T22:56:17.563Z,14.90
2018-11-10T22:58:47.458Z,14.82
2018-11-10T23:01:16.647Z,14.80
2018-11-10T23:03:45.901Z,14.80
2018-11-10T23:06:14.946Z,14.81
2018-11-10T23:08:44.108Z,14.87
2018-11-10T23:11:13.326Z,14.79
2018-11-10T23:13:42.495Z,14.76
2018-11-10T23:16:11.671Z,14.78
2018-11-10T23:18:40.819Z,14.81
2018-11-10T23:21:09.979Z,14.77
2018-11-10T23:23:39.179Z,14.75
2018-11-10T23:26:08.454Z,14.77
2018-11-10T23:28:37.607Z,14.82
2018-11-10T23:31:06.918Z,14.73
2018-11-10T23:33:36.062Z,14.79
2018-11-10T23:36:05.618Z,14.74
2018-11-10T23:38:34.965Z,14.75
2018-11-10T23:41:06.066Z,14.74
2018-11-10T23:43:35.243Z,14.74
2018-11-10T23:46:05.506Z,14.77
2018-11-10T23:48:34.688Z,14.77
2018-11-10T23:51:03.845Z,14.73
2018-11-10T23:53:32.990Z,14.73
2018-11-10T23:56:02.157Z,14.72
2018-11-10T23:58:31.293Z,14.71
